sensor_id;sensor_type;location;lat;lon;timestamp;P1;durP1;ratioP1;P2;durP2;ratioP2
9248;SDS011;4660;41.768;26.198;2023-04-15T00:00:36;12.47;;;5.30;;
9248;SDS011;4660;41.768;26.198;2023-04-15T00:03:02;14.20;;;5.23;;
9248;SDS011;4660;41.768;26.198;2023-04-15T00:05:29;12.17;;;4.53;;
9248;SDS011;4660;41.768;26.198;2023-04-15T00:07:55;15.90;;;4.27;;
9248;SDS011;4660;41.768;26.198;2023-04-15T00:10:22;18.30;;;5.17;;
9248;SDS011;4660;41.768;26.198;2023-04-15T00:12:47;12.77;;;5.33;;
9248;SDS011;4660;41.768;26.198;2023-04-15T00:15:12;11.30;;;4.22;;
9248;SDS011;4660;41.768;26.198;2023-04-15T00:17:38;19.95;;;5.43;;
9248;SDS011;4660;41.768;26.198;2023-04-15T00:20:04;13.63;;;5.28;;
9248;SDS011;4660;41.768;26.198;2023-04-15T00:22:31;14.93;;;4.50;;
9248;SDS011;4660;41.768;26.198;2023-04-15T00:24:56;16.73;;;4.60;;
9248;SDS011;4660;41.768;26.198;2023-04-15T00:27:22;12.57;;;4.87;;
9248;SDS011;4660;41.768;26.198;2023-04-15T00:29:48;11.97;;;4.23;;
9248;SDS011;4660;41.768;26.198;2023-04-15T00:32:13;13.98;;;4.45;;
9248;SDS011;4660;41.768;26.198;2023-04-15T00:34:39;19.10;;;5.40;;
9248;SDS011;4660;41.768;26.198;2023-04-15T00:37:05;13.52;;;5.15;;
9248;SDS011;4660;41.768;26.198;2023-04-15T00:39:30;17.87;;;5.53;;
9248;SDS011;4660;41.768;26.198;2023-04-15T00:41:56;15.07;;;4.80;;
9248;SDS011;4660;41.768;26.198;2023-04-15T00:44:22;17.13;;;4.80;;
9248;SDS011;4660;41.768;26.198;2023-04-15T00:46:49;15.70;;;4.50;;
9248;SDS011;4660;41.768;26.198;2023-04-15T00:49:15;13.83;;;4.60;;
9248;SDS011;4660;41.768;26.198;2023-04-15T00:51:42;16.27;;;6.03;;
9248;SDS011;4660;41.768;26.198;2023-04-15T00:54:08;18.53;;;5.83;;
9248;SDS011;4660;41.768;26.198;2023-04-15T00:56:35;11.53;;;4.40;;
9248;SDS011;4660;41.768;26.198;2023-04-15T00:59:02;13.30;;;4.73;;
9248;SDS011;4660;41.768;26.198;2023-04-15T01:01:32;17.92;;;5.28;;
9248;SDS011;4660;41.768;26.198;2023-04-15T01:03:59;14.40;;;4.20;;
9248;SDS011;4660;41.768;26.198;2023-04-15T01:06:25;15.67;;;4.80;;
9248;SDS011;4660;41.768;26.198;2023-04-15T01:08:52;16.83;;;5.43;;
9248;SDS011;4660;41.768;26.198;2023-04-15T01:11:18;15.20;;;5.43;;
9248;SDS011;4660;41.768;26.198;2023-04-15T01:13:45;16.07;;;5.87;;
9248;SDS011;4660;41.768;26.198;2023-04-15T01:16:11;13.57;;;5.17;;
9248;SDS011;4660;41.768;26.198;2023-04-15T01:18:37;17.67;;;5.03;;
9248;SDS011;4660;41.768;26.198;2023-04-15T01:21:03;14.07;;;5.60;;
9248;SDS011;4660;41.768;26.198;2023-04-15T01:23:30;12.83;;;5.30;;
9248;SDS011;4660;41.768;26.198;2023-04-15T01:25:56;18.17;;;6.27;;
9248;SDS011;4660;41.768;26.198;2023-04-15T01:28:23;10.83;;;5.20;;
9248;SDS011;4660;41.768;26.198;2023-04-15T01:30:49;16.27;;;5.47;;
9248;SDS011;4660;41.768;26.198;2023-04-15T01:33:15;17.37;;;6.33;;
9248;SDS011;4660;41.768;26.198;2023-04-15T01:35:41;17.13;;;5.27;;
9248;SDS011;4660;41.768;26.198;2023-04-15T01:38:08;16.53;;;5.80;;
9248;SDS011;4660;41.768;26.198;2023-04-15T01:40:35;9.83;;;5.30;;
9248;SDS011;4660;41.768;26.198;2023-04-15T01:43:01;16.97;;;5.70;;
9248;SDS011;4660;41.768;26.198;2023-04-15T01:45:27;15.73;;;6.73;;
9248;SDS011;4660;41.768;26.198;2023-04-15T01:47:52;19.30;;;5.87;;
9248;SDS011;4660;41.768;26.198;2023-04-15T01:50:18;14.50;;;5.50;;
9248;SDS011;4660;41.768;26.198;2023-04-15T01:52:44;17.33;;;5.07;;
9248;SDS011;4660;41.768;26.198;2023-04-15T01:55:11;12.50;;;5.83;;
9248;SDS011;4660;41.768;26.198;2023-04-15T01:57:37;12.10;;;5.37;;
9248;SDS011;4660;41.768;26.198;2023-04-15T02:00:03;19.27;;;5.87;;
9248;SDS011;4660;41.768;26.198;2023-04-15T02:02:29;24.83;;;7.33;;
9248;SDS011;4660;41.768;26.198;2023-04-15T02:04:55;16.17;;;5.53;;
9248;SDS011;4660;41.768;26.198;2023-04-15T02:07:20;17.23;;;5.77;;
9248;SDS011;4660;41.768;26.198;2023-04-15T02:09:46;13.77;;;5.00;;
9248;SDS011;4660;41.768;26.198;2023-04-15T02:12:11;11.93;;;5.20;;
9248;SDS011;4660;41.768;26.198;2023-04-15T02:14:37;13.30;;;5.93;;
9248;SDS011;4660;41.768;26.198;2023-04-15T02:17:03;13.77;;;6.47;;
9248;SDS011;4660;41.768;26.198;2023-04-15T02:19:35;18.47;;;6.33;;
9248;SDS011;4660;41.768;26.198;2023-04-15T02:22:01;21.80;;;6.43;;
9248;SDS011;4660;41.768;26.198;2023-04-15T02:24:27;14.10;;;5.80;;
9248;SDS011;4660;41.768;26.198;2023-04-15T02:26:54;14.00;;;5.93;;
9248;SDS011;4660;41.768;26.198;2023-04-15T02:29:20;14.83;;;5.97;;
9248;SDS011;4660;41.768;26.198;2023-04-15T02:31:47;14.50;;;5.70;;
9248;SDS011;4660;41.768;26.198;2023-04-15T02:34:12;17.20;;;6.33;;
9248;SDS011;4660;41.768;26.198;2023-04-15T02:36:38;14.37;;;5.43;;
9248;SDS011;4660;41.768;26.198;2023-04-15T02:39:04;17.37;;;6.53;;
9248;SDS011;4660;41.768;26.198;2023-04-15T02:41:30;14.27;;;6.50;;
9248;SDS011;4660;41.768;26.198;2023-04-15T02:43:55;12.67;;;5.97;;
9248;SDS011;4660;41.768;26.198;2023-04-15T02:46:21;14.43;;;6.10;;
9248;SDS011;4660;41.768;26.198;2023-04-15T02:48:47;17.47;;;5.67;;
9248;SDS011;4660;41.768;26.198;2023-04-15T02:51:18;12.63;;;5.60;;
9248;SDS011;4660;41.768;26.198;2023-04-15T02:53:45;10.83;;;5.70;;
9248;SDS011;4660;41.768;26.198;2023-04-15T02:56:12;18.33;;;5.77;;
9248;SDS011;4660;41.768;26.198;2023-04-15T02:58:39;18.27;;;6.47;;
9248;SDS011;4660;41.768;26.198;2023-04-15T03:01:05;14.23;;;6.17;;
9248;SDS011;4660;41.768;26.198;2023-04-15T03:03:31;13.90;;;5.27;;
9248;SDS011;4660;41.768;26.198;2023-04-15T03:05:57;14.40;;;6.53;;
9248;SDS011;4660;41.768;26.198;2023-04-15T03:08:22;17.93;;;6.30;;
9248;SDS011;4660;41.768;26.198;2023-04-15T03:10:48;15.90;;;7.27;;
9248;SDS011;4660;41.768;26.198;2023-04-15T03:13:13;17.93;;;6.70;;
9248;SDS011;4660;41.768;26.198;2023-04-15T03:15:39;18.70;;;5.93;;
9248;SDS011;4660;41.768;26.198;2023-04-15T03:18:04;14.60;;;6.10;;
9248;SDS011;4660;41.768;26.198;2023-04-15T03:20:30;20.47;;;8.43;;
9248;SDS011;4660;41.768;26.198;2023-04-15T03:22:55;21.03;;;7.67;;
9248;SDS011;4660;41.768;26.198;2023-04-15T03:25:21;18.60;;;6.80;;
9248;SDS011;4660;41.768;26.198;2023-04-15T03:27:46;14.27;;;6.03;;
9248;SDS011;4660;41.768;26.198;2023-04-15T03:30:12;13.33;;;6.77;;
9248;SDS011;4660;41.768;26.198;2023-04-15T03:32:38;15.33;;;5.83;;
9248;SDS011;4660;41.768;26.198;2023-04-15T03:35:03;18.37;;;6.17;;
9248;SDS011;4660;41.768;26.198;2023-04-15T03:37:29;13.03;;;6.00;;
9248;SDS011;4660;41.768;26.198;2023-04-15T03:39:55;16.43;;;6.40;;
9248;SDS011;4660;41.768;26.198;2023-04-15T03:42:20;16.97;;;7.07;;
9248;SDS011;4660;41.768;26.198;2023-04-15T03:44:46;9.00;;;4.70;;
9248;SDS011;4660;41.768;26.198;2023-04-15T03:47:11;10.00;;;4.77;;
9248;SDS011;4660;41.768;26.198;2023-04-15T03:49:37;9.47;;;4.30;;
9248;SDS011;4660;41.768;26.198;2023-04-15T03:52:02;9.33;;;5.03;;
9248;SDS011;4660;41.768;26.198;2023-04-15T03:54:28;6.53;;;3.60;;
9248;SDS011;4660;41.768;26.198;2023-04-15T03:56:54;6.60;;;3.20;;
9248;SDS011;4660;41.768;26.198;2023-04-15T03:59:20;11.93;;;3.07;;
9248;SDS011;4660;41.768;26.198;2023-04-15T04:01:46;6.30;;;3.40;;
9248;SDS011;4660;41.768;26.198;2023-04-15T04:04:12;7.60;;;2.90;;
9248;SDS011;4660;41.768;26.198;2023-04-15T04:06:37;3.70;;;2.67;;
9248;SDS011;4660;41.768;26.198;2023-04-15T04:09:03;5.03;;;3.20;;
9248;SDS011;4660;41.768;26.198;2023-04-15T04:11:28;7.87;;;3.63;;
9248;SDS011;4660;41.768;26.198;2023-04-15T04:13:54;5.20;;;2.93;;
9248;SDS011;4660;41.768;26.198;2023-04-15T04:16:20;4.30;;;2.53;;
9248;SDS011;4660;41.768;26.198;2023-04-15T04:18:45;4.83;;;2.80;;
9248;SDS011;4660;41.768;26.198;2023-04-15T04:21:11;7.97;;;3.50;;
9248;SDS011;4660;41.768;26.198;2023-04-15T04:23:36;4.50;;;3.13;;
9248;SDS011;4660;41.768;26.198;2023-04-15T04:26:02;7.03;;;3.10;;
9248;SDS011;4660;41.768;26.198;2023-04-15T04:28:27;8.60;;;4.00;;
9248;SDS011;4660;41.768;26.198;2023-04-15T04:30:53;7.67;;;3.77;;
9248;SDS011;4660;41.768;26.198;2023-04-15T04:33:18;7.20;;;4.10;;
9248;SDS011;4660;41.768;26.198;2023-04-15T04:35:44;8.87;;;4.20;;
9248;SDS011;4660;41.768;26.198;2023-04-15T04:38:10;4.37;;;2.80;;
9248;SDS011;4660;41.768;26.198;2023-04-15T04:40:35;6.63;;;3.10;;
9248;SDS011;4660;41.768;26.198;2023-04-15T04:43:01;7.23;;;2.97;;
9248;SDS011;4660;41.768;26.198;2023-04-15T04:45:27;5.60;;;3.13;;
9248;SDS011;4660;41.768;26.198;2023-04-15T04:47:52;9.17;;;4.13;;
9248;SDS011;4660;41.768;26.198;2023-04-15T04:50:18;7.43;;;3.60;;
9248;SDS011;4660;41.768;26.198;2023-04-15T04:52:43;11.00;;;3.97;;
9248;SDS011;4660;41.768;26.198;2023-04-15T04:55:09;7.70;;;3.63;;
9248;SDS011;4660;41.768;26.198;2023-04-15T04:57:34;7.33;;;2.93;;
9248;SDS011;4660;41.768;26.198;2023-04-15T05:00:00;8.70;;;3.37;;
9248;SDS011;4660;41.768;26.198;2023-04-15T05:02:28;8.07;;;3.57;;
9248;SDS011;4660;41.768;26.198;2023-04-15T05:04:54;12.90;;;6.27;;
9248;SDS011;4660;41.768;26.198;2023-04-15T05:07:19;19.53;;;9.60;;
9248;SDS011;4660;41.768;26.198;2023-04-15T05:09:45;16.07;;;8.47;;
9248;SDS011;4660;41.768;26.198;2023-04-15T05:12:11;9.93;;;5.87;;
9248;SDS011;4660;41.768;26.198;2023-04-15T05:14:39;10.93;;;4.77;;
9248;SDS011;4660;41.768;26.198;2023-04-15T05:17:06;8.47;;;5.43;;
9248;SDS011;4660;41.768;26.198;2023-04-15T05:19:32;9.33;;;5.10;;
9248;SDS011;4660;41.768;26.198;2023-04-15T05:21:58;7.63;;;3.77;;
9248;SDS011;4660;41.768;26.198;2023-04-15T05:24:23;9.63;;;4.03;;
9248;SDS011;4660;41.768;26.198;2023-04-15T05:26:49;7.50;;;4.13;;
9248;SDS011;4660;41.768;26.198;2023-04-15T05:29:15;8.03;;;3.50;;
9248;SDS011;4660;41.768;26.198;2023-04-15T05:31:41;7.43;;;3.63;;
9248;SDS011;4660;41.768;26.198;2023-04-15T05:34:07;7.97;;;4.40;;
9248;SDS011;4660;41.768;26.198;2023-04-15T05:36:32;13.17;;;6.83;;
9248;SDS011;4660;41.768;26.198;2023-04-15T05:38:59;8.40;;;4.40;;
9248;SDS011;4660;41.768;26.198;2023-04-15T05:41:26;10.77;;;4.03;;
9248;SDS011;4660;41.768;26.198;2023-04-15T05:43:51;7.60;;;4.50;;
9248;SDS011;4660;41.768;26.198;2023-04-15T05:46:17;7.67;;;3.73;;
9248;SDS011;4660;41.768;26.198;2023-04-15T05:48:42;5.07;;;3.97;;
9248;SDS011;4660;41.768;26.198;2023-04-15T05:51:08;8.40;;;4.60;;
9248;SDS011;4660;41.768;26.198;2023-04-15T05:53:33;6.20;;;3.80;;
9248;SDS011;4660;41.768;26.198;2023-04-15T05:55:59;17.67;;;4.57;;
9248;SDS011;4660;41.768;26.198;2023-04-15T05:58:24;11.67;;;4.00;;
9248;SDS011;4660;41.768;26.198;2023-04-15T06:00:50;8.73;;;3.30;;
9248;SDS011;4660;41.768;26.198;2023-04-15T06:03:15;8.80;;;3.20;;
9248;SDS011;4660;41.768;26.198;2023-04-15T06:05:42;7.50;;;4.30;;
9248;SDS011;4660;41.768;26.198;2023-04-15T06:08:09;7.27;;;4.03;;
9248;SDS011;4660;41.768;26.198;2023-04-15T06:10:35;7.70;;;4.70;;
9248;SDS011;4660;41.768;26.198;2023-04-15T06:13:04;10.50;;;4.17;;
9248;SDS011;4660;41.768;26.198;2023-04-15T06:15:30;9.33;;;4.70;;
9248;SDS011;4660;41.768;26.198;2023-04-15T06:17:56;6.80;;;3.20;;
9248;SDS011;4660;41.768;26.198;2023-04-15T06:20:21;27.50;;;21.27;;
9248;SDS011;4660;41.768;26.198;2023-04-15T06:22:48;105.47;;;45.53;;
9248;SDS011;4660;41.768;26.198;2023-04-15T06:25:13;48.77;;;23.77;;
9248;SDS011;4660;41.768;26.198;2023-04-15T06:27:39;101.17;;;39.63;;
9248;SDS011;4660;41.768;26.198;2023-04-15T06:30:04;31.97;;;14.53;;
9248;SDS011;4660;41.768;26.198;2023-04-15T06:32:31;6.40;;;4.03;;
9248;SDS011;4660;41.768;26.198;2023-04-15T06:34:57;39.97;;;20.60;;
9248;SDS011;4660;41.768;26.198;2023-04-15T06:37:23;14.87;;;8.80;;
9248;SDS011;4660;41.768;26.198;2023-04-15T06:39:48;23.77;;;13.77;;
9248;SDS011;4660;41.768;26.198;2023-04-15T06:42:14;59.30;;;27.87;;
9248;SDS011;4660;41.768;26.198;2023-04-15T06:44:40;59.20;;;29.17;;
9248;SDS011;4660;41.768;26.198;2023-04-15T06:47:05;43.73;;;21.97;;
9248;SDS011;4660;41.768;26.198;2023-04-15T06:49:31;20.13;;;11.03;;
9248;SDS011;4660;41.768;26.198;2023-04-15T06:51:57;13.23;;;8.23;;
9248;SDS011;4660;41.768;26.198;2023-04-15T06:54:25;18.03;;;9.00;;
9248;SDS011;4660;41.768;26.198;2023-04-15T06:56:51;11.13;;;7.53;;
9248;SDS011;4660;41.768;26.198;2023-04-15T06:59:17;6.20;;;5.20;;
9248;SDS011;4660;41.768;26.198;2023-04-15T07:01:43;7.67;;;5.40;;
9248;SDS011;4660;41.768;26.198;2023-04-15T07:04:08;20.73;;;14.07;;
9248;SDS011;4660;41.768;26.198;2023-04-15T07:06:34;28.50;;;17.93;;
9248;SDS011;4660;41.768;26.198;2023-04-15T07:09:00;48.47;;;30.37;;
9248;SDS011;4660;41.768;26.198;2023-04-15T07:11:27;30.83;;;19.37;;
9248;SDS011;4660;41.768;26.198;2023-04-15T07:13:53;8.20;;;4.67;;
9248;SDS011;4660;41.768;26.198;2023-04-15T07:16:19;18.47;;;11.67;;
9248;SDS011;4660;41.768;26.198;2023-04-15T07:18:45;19.27;;;10.40;;
9248;SDS011;4660;41.768;26.198;2023-04-15T07:21:11;29.60;;;13.70;;
9248;SDS011;4660;41.768;26.198;2023-04-15T07:23:40;64.03;;;36.93;;
9248;SDS011;4660;41.768;26.198;2023-04-15T07:26:07;9.23;;;5.43;;
9248;SDS011;4660;41.768;26.198;2023-04-15T07:28:32;15.77;;;8.40;;
9248;SDS011;4660;41.768;26.198;2023-04-15T07:30:58;33.90;;;19.30;;
9248;SDS011;4660;41.768;26.198;2023-04-15T07:33:24;15.40;;;8.87;;
9248;SDS011;4660;41.768;26.198;2023-04-15T07:35:49;27.93;;;12.93;;
9248;SDS011;4660;41.768;26.198;2023-04-15T07:38:15;8.57;;;5.37;;
9248;SDS011;4660;41.768;26.198;2023-04-15T07:40:40;4.53;;;3.00;;
9248;SDS011;4660;41.768;26.198;2023-04-15T07:43:07;7.57;;;3.57;;
9248;SDS011;4660;41.768;26.198;2023-04-15T07:45:33;4.57;;;3.07;;
9248;SDS011;4660;41.768;26.198;2023-04-15T07:48:00;7.97;;;4.10;;
9248;SDS011;4660;41.768;26.198;2023-04-15T07:50:26;5.97;;;4.03;;
9248;SDS011;4660;41.768;26.198;2023-04-15T07:52:57;4.83;;;3.07;;
9248;SDS011;4660;41.768;26.198;2023-04-15T07:55:23;6.00;;;3.30;;
9248;SDS011;4660;41.768;26.198;2023-04-15T07:57:49;7.73;;;3.80;;
9248;SDS011;4660;41.768;26.198;2023-04-15T08:00:16;8.13;;;4.10;;
9248;SDS011;4660;41.768;26.198;2023-04-15T08:02:45;5.27;;;3.40;;
9248;SDS011;4660;41.768;26.198;2023-04-15T08:05:12;8.73;;;4.03;;
9248;SDS011;4660;41.768;26.198;2023-04-15T08:07:40;7.93;;;3.80;;
9248;SDS011;4660;41.768;26.198;2023-04-15T08:10:06;10.60;;;5.60;;
9248;SDS011;4660;41.768;26.198;2023-04-15T08:12:32;10.05;;;4.80;;
9248;SDS011;4660;41.768;26.198;2023-04-15T08:15:02;15.97;;;6.37;;
9248;SDS011;4660;41.768;26.198;2023-04-15T08:17:28;4.20;;;3.00;;
9248;SDS011;4660;41.768;26.198;2023-04-15T08:19:54;2.80;;;2.10;;
9248;SDS011;4660;41.768;26.198;2023-04-15T08:22:20;7.43;;;3.83;;
9248;SDS011;4660;41.768;26.198;2023-04-15T08:24:46;11.55;;;5.47;;
9248;SDS011;4660;41.768;26.198;2023-04-15T08:34:57;8.75;;;3.92;;
9248;SDS011;4660;41.768;26.198;2023-04-15T08:44:32;6.22;;;2.72;;
9248;SDS011;4660;41.768;26.198;2023-04-15T08:47:02;5.28;;;2.72;;
9248;SDS011;4660;41.768;26.198;2023-04-15T08:49:32;4.25;;;2.53;;
9248;SDS011;4660;41.768;26.198;2023-04-15T08:52:03;5.90;;;3.10;;
9248;SDS011;4660;41.768;26.198;2023-04-15T08:54:30;3.10;;;2.08;;
9248;SDS011;4660;41.768;26.198;2023-04-15T09:05:15;2.78;;;2.15;;
9248;SDS011;4660;41.768;26.198;2023-04-15T09:12:57;4.25;;;2.67;;
9248;SDS011;4660;41.768;26.198;2023-04-15T09:15:26;6.78;;;2.50;;
9248;SDS011;4660;41.768;26.198;2023-04-15T09:20:24;7.05;;;2.53;;
9248;SDS011;4660;41.768;26.198;2023-04-15T09:33:18;3.80;;;2.17;;
9248;SDS011;4660;41.768;26.198;2023-04-15T09:42:06;7.80;;;2.10;;
9248;SDS011;4660;41.768;26.198;2023-04-15T10:02:57;7.03;;;2.70;;
9248;SDS011;4660;41.768;26.198;2023-04-15T10:05:28;10.73;;;2.83;;
9248;SDS011;4660;41.768;26.198;2023-04-15T10:13:50;7.43;;;3.00;;
9248;SDS011;4660;41.768;26.198;2023-04-15T10:43:15;6.53;;;2.67;;
9248;SDS011;4660;41.768;26.198;2023-04-15T11:29:49;12.45;;;2.72;;
9248;SDS011;4660;41.768;26.198;2023-04-15T11:32:17;9.80;;;3.47;;
9248;SDS011;4660;41.768;26.198;2023-04-15T11:38:41;10.20;;;3.53;;
9248;SDS011;4660;41.768;26.198;2023-04-15T11:41:09;9.02;;;3.38;;
9248;SDS011;4660;41.768;26.198;2023-04-15T11:43:36;5.63;;;2.95;;
9248;SDS011;4660;41.768;26.198;2023-04-15T11:48:43;7.50;;;3.20;;
9248;SDS011;4660;41.768;26.198;2023-04-15T11:51:14;14.05;;;3.30;;
9248;SDS011;4660;41.768;26.198;2023-04-15T11:53:48;14.35;;;3.60;;
9248;SDS011;4660;41.768;26.198;2023-04-15T11:56:22;10.00;;;3.78;;
9248;SDS011;4660;41.768;26.198;2023-04-15T12:01:39;8.65;;;3.15;;
9248;SDS011;4660;41.768;26.198;2023-04-15T12:33:04;18.13;;;4.10;;
9248;SDS011;4660;41.768;26.198;2023-04-15T12:44:45;12.00;;;3.90;;
9248;SDS011;4660;41.768;26.198;2023-04-15T12:47:13;14.20;;;4.22;;
9248;SDS011;4660;41.768;26.198;2023-04-15T12:49:39;7.85;;;3.22;;
9248;SDS011;4660;41.768;26.198;2023-04-15T12:59:51;7.78;;;2.35;;
9248;SDS011;4660;41.768;26.198;2023-04-15T13:49:01;2.92;;;1.58;;
9248;SDS011;4660;41.768;26.198;2023-04-15T13:51:27;4.38;;;1.42;;
9248;SDS011;4660;41.768;26.198;2023-04-15T13:53:53;3.33;;;1.80;;
9248;SDS011;4660;41.768;26.198;2023-04-15T13:58:55;5.25;;;1.52;;
9248;SDS011;4660;41.768;26.198;2023-04-15T14:01:23;5.00;;;1.58;;
9248;SDS011;4660;41.768;26.198;2023-04-15T14:16:01;7.95;;;3.28;;
9248;SDS011;4660;41.768;26.198;2023-04-15T14:18:28;8.23;;;2.92;;
9248;SDS011;4660;41.768;26.198;2023-04-15T14:20:55;8.73;;;4.13;;
9248;SDS011;4660;41.768;26.198;2023-04-15T14:23:21;8.45;;;3.67;;
9248;SDS011;4660;41.768;26.198;2023-04-15T14:25:48;8.85;;;4.13;;
9248;SDS011;4660;41.768;26.198;2023-04-15T14:28:16;5.22;;;2.05;;
9248;SDS011;4660;41.768;26.198;2023-04-15T14:33:18;4.32;;;1.85;;
9248;SDS011;4660;41.768;26.198;2023-04-15T14:44:32;7.03;;;2.45;;
9248;SDS011;4660;41.768;26.198;2023-04-15T14:47:04;5.22;;;2.25;;
9248;SDS011;4660;41.768;26.198;2023-04-15T14:49:31;5.88;;;2.13;;
9248;SDS011;4660;41.768;26.198;2023-04-15T14:51:57;3.28;;;1.80;;
9248;SDS011;4660;41.768;26.198;2023-04-15T14:54:23;5.78;;;2.47;;
9248;SDS011;4660;41.768;26.198;2023-04-15T14:56:49;4.68;;;2.00;;
9248;SDS011;4660;41.768;26.198;2023-04-15T14:59:24;7.15;;;2.28;;
9248;SDS011;4660;41.768;26.198;2023-04-15T15:01:51;4.57;;;1.88;;
9248;SDS011;4660;41.768;26.198;2023-04-15T15:04:17;7.13;;;2.03;;
9248;SDS011;4660;41.768;26.198;2023-04-15T15:06:43;3.15;;;1.40;;
9248;SDS011;4660;41.768;26.198;2023-04-15T15:09:09;7.00;;;2.80;;
9248;SDS011;4660;41.768;26.198;2023-04-15T15:11:35;7.95;;;4.35;;
9248;SDS011;4660;41.768;26.198;2023-04-15T15:14:01;7.75;;;4.13;;
9248;SDS011;4660;41.768;26.198;2023-04-15T15:16:27;3.53;;;2.33;;
9248;SDS011;4660;41.768;26.198;2023-04-15T15:18:53;6.95;;;3.15;;
9248;SDS011;4660;41.768;26.198;2023-04-15T15:21:20;8.35;;;3.50;;
9248;SDS011;4660;41.768;26.198;2023-04-15T15:34:07;8.02;;;3.42;;
9248;SDS011;4660;41.768;26.198;2023-04-15T15:36:34;3.55;;;2.40;;
9248;SDS011;4660;41.768;26.198;2023-04-15T15:53:01;7.10;;;2.78;;
9248;SDS011;4660;41.768;26.198;2023-04-15T15:58:17;11.60;;;2.60;;
9248;SDS011;4660;41.768;26.198;2023-04-15T16:05:03;8.05;;;2.83;;
9248;SDS011;4660;41.768;26.198;2023-04-15T16:07:33;12.00;;;3.30;;
9248;SDS011;4660;41.768;26.198;2023-04-15T16:15:11;5.95;;;2.75;;
9248;SDS011;4660;41.768;26.198;2023-04-15T16:17:36;6.18;;;2.70;;
9248;SDS011;4660;41.768;26.198;2023-04-15T16:20:02;5.50;;;3.28;;
9248;SDS011;4660;41.768;26.198;2023-04-15T16:25:15;7.72;;;3.63;;
9248;SDS011;4660;41.768;26.198;2023-04-15T16:27:44;11.07;;;4.05;;
9248;SDS011;4660;41.768;26.198;2023-04-15T16:30:10;6.32;;;3.25;;
9248;SDS011;4660;41.768;26.198;2023-04-15T16:32:36;9.70;;;3.20;;
9248;SDS011;4660;41.768;26.198;2023-04-15T16:35:02;7.28;;;3.00;;
9248;SDS011;4660;41.768;26.198;2023-04-15T16:42:38;10.65;;;3.30;;
9248;SDS011;4660;41.768;26.198;2023-04-15T16:45:24;7.25;;;3.13;;
9248;SDS011;4660;41.768;26.198;2023-04-15T16:47:50;8.43;;;3.78;;
9248;SDS011;4660;41.768;26.198;2023-04-15T16:50:18;8.77;;;3.42;;
9248;SDS011;4660;41.768;26.198;2023-04-15T16:52:44;6.60;;;2.95;;
9248;SDS011;4660;41.768;26.198;2023-04-15T16:55:10;11.00;;;2.95;;
9248;SDS011;4660;41.768;26.198;2023-04-15T16:57:50;6.70;;;3.20;;
9248;SDS011;4660;41.768;26.198;2023-04-15T17:00:17;7.13;;;2.67;;
9248;SDS011;4660;41.768;26.198;2023-04-15T17:02:45;8.18;;;2.80;;
9248;SDS011;4660;41.768;26.198;2023-04-15T17:05:12;13.10;;;3.25;;
9248;SDS011;4660;41.768;26.198;2023-04-15T17:07:38;5.97;;;2.53;;
9248;SDS011;4660;41.768;26.198;2023-04-15T17:10:05;10.95;;;3.90;;
9248;SDS011;4660;41.768;26.198;2023-04-15T17:12:31;13.05;;;5.07;;
9248;SDS011;4660;41.768;26.198;2023-04-15T17:14:57;10.15;;;4.82;;
9248;SDS011;4660;41.768;26.198;2023-04-15T17:17:23;7.35;;;3.75;;
9248;SDS011;4660;41.768;26.198;2023-04-15T17:19:52;19.03;;;8.20;;
9248;SDS011;4660;41.768;26.198;2023-04-15T17:22:23;8.38;;;3.92;;
9248;SDS011;4660;41.768;26.198;2023-04-15T17:25:02;7.50;;;3.20;;
9248;SDS011;4660;41.768;26.198;2023-04-15T17:27:29;8.47;;;3.70;;
9248;SDS011;4660;41.768;26.198;2023-04-15T17:29:55;11.75;;;3.38;;
9248;SDS011;4660;41.768;26.198;2023-04-15T17:32:27;11.23;;;4.83;;
9248;SDS011;4660;41.768;26.198;2023-04-15T17:35:00;7.93;;;3.95;;
9248;SDS011;4660;41.768;26.198;2023-04-15T17:37:33;10.03;;;3.80;;
9248;SDS011;4660;41.768;26.198;2023-04-15T17:39:59;15.98;;;5.15;;
9248;SDS011;4660;41.768;26.198;2023-04-15T17:42:25;9.55;;;3.90;;
9248;SDS011;4660;41.768;26.198;2023-04-15T17:44:51;7.18;;;3.78;;
9248;SDS011;4660;41.768;26.198;2023-04-15T17:47:18;11.13;;;4.30;;
9248;SDS011;4660;41.768;26.198;2023-04-15T17:49:45;13.30;;;3.90;;
9248;SDS011;4660;41.768;26.198;2023-04-15T17:52:12;7.53;;;3.13;;
9248;SDS011;4660;41.768;26.198;2023-04-15T17:54:38;8.13;;;3.90;;
9248;SDS011;4660;41.768;26.198;2023-04-15T17:57:05;11.20;;;3.63;;
9248;SDS011;4660;41.768;26.198;2023-04-15T17:59:31;9.63;;;3.38;;
9248;SDS011;4660;41.768;26.198;2023-04-15T18:02:02;5.83;;;3.30;;
9248;SDS011;4660;41.768;26.198;2023-04-15T18:04:28;9.80;;;3.83;;
9248;SDS011;4660;41.768;26.198;2023-04-15T18:06:54;8.57;;;3.97;;
9248;SDS011;4660;41.768;26.198;2023-04-15T18:09:23;12.63;;;4.17;;
9248;SDS011;4660;41.768;26.198;2023-04-15T18:12:03;8.83;;;3.60;;
9248;SDS011;4660;41.768;26.198;2023-04-15T18:14:28;13.23;;;4.03;;
9248;SDS011;4660;41.768;26.198;2023-04-15T18:16:57;9.37;;;4.07;;
9248;SDS011;4660;41.768;26.198;2023-04-15T18:19:23;12.73;;;4.30;;
9248;SDS011;4660;41.768;26.198;2023-04-15T18:21:49;8.00;;;3.53;;
9248;SDS011;4660;41.768;26.198;2023-04-15T18:24:16;10.13;;;4.07;;
9248;SDS011;4660;41.768;26.198;2023-04-15T18:26:43;11.10;;;4.18;;
9248;SDS011;4660;41.768;26.198;2023-04-15T18:31:46;7.37;;;3.70;;
9248;SDS011;4660;41.768;26.198;2023-04-15T18:34:30;8.37;;;3.60;;
9248;SDS011;4660;41.768;26.198;2023-04-15T18:36:56;8.48;;;3.75;;
9248;SDS011;4660;41.768;26.198;2023-04-15T18:39:22;6.57;;;3.33;;
9248;SDS011;4660;41.768;26.198;2023-04-15T18:41:49;11.07;;;4.03;;
9248;SDS011;4660;41.768;26.198;2023-04-15T18:44:15;7.50;;;3.90;;
9248;SDS011;4660;41.768;26.198;2023-04-15T18:46:42;7.77;;;3.50;;
9248;SDS011;4660;41.768;26.198;2023-04-15T18:51:43;9.70;;;3.97;;
9248;SDS011;4660;41.768;26.198;2023-04-15T18:54:09;11.82;;;3.10;;
9248;SDS011;4660;41.768;26.198;2023-04-15T18:56:37;11.27;;;4.00;;
9248;SDS011;4660;41.768;26.198;2023-04-15T18:59:04;12.87;;;3.53;;
9248;SDS011;4660;41.768;26.198;2023-04-15T19:01:30;9.43;;;3.40;;
9248;SDS011;4660;41.768;26.198;2023-04-15T19:04:03;8.93;;;4.00;;
9248;SDS011;4660;41.768;26.198;2023-04-15T19:06:39;13.23;;;4.03;;
9248;SDS011;4660;41.768;26.198;2023-04-15T19:09:05;7.03;;;3.40;;
9248;SDS011;4660;41.768;26.198;2023-04-15T19:11:32;16.67;;;3.77;;
9248;SDS011;4660;41.768;26.198;2023-04-15T19:13:58;11.33;;;4.03;;
9248;SDS011;4660;41.768;26.198;2023-04-15T19:16:25;9.27;;;4.10;;
9248;SDS011;4660;41.768;26.198;2023-04-15T19:18:51;10.97;;;4.53;;
9248;SDS011;4660;41.768;26.198;2023-04-15T19:21:19;9.20;;;4.30;;
9248;SDS011;4660;41.768;26.198;2023-04-15T19:26:23;8.73;;;3.83;;
9248;SDS011;4660;41.768;26.198;2023-04-15T19:29:44;10.80;;;4.30;;
9248;SDS011;4660;41.768;26.198;2023-04-15T19:32:11;12.07;;;4.60;;
9248;SDS011;4660;41.768;26.198;2023-04-15T19:34:39;12.90;;;4.53;;
9248;SDS011;4660;41.768;26.198;2023-04-15T19:37:12;6.93;;;3.80;;
9248;SDS011;4660;41.768;26.198;2023-04-15T19:40:52;10.97;;;3.80;;
9248;SDS011;4660;41.768;26.198;2023-04-15T19:46:15;11.03;;;4.73;;
9248;SDS011;4660;41.768;26.198;2023-04-15T19:48:57;10.73;;;4.37;;
9248;SDS011;4660;41.768;26.198;2023-04-15T19:54:05;9.67;;;4.10;;
9248;SDS011;4660;41.768;26.198;2023-04-15T20:05:19;17.70;;;5.57;;
9248;SDS011;4660;41.768;26.198;2023-04-15T20:07:46;14.85;;;6.10;;
9248;SDS011;4660;41.768;26.198;2023-04-15T20:10:16;14.88;;;5.35;;
9248;SDS011;4660;41.768;26.198;2023-04-15T20:12:47;15.53;;;5.63;;
9248;SDS011;4660;41.768;26.198;2023-04-15T20:15:13;16.55;;;5.90;;
9248;SDS011;4660;41.768;26.198;2023-04-15T20:17:54;13.93;;;5.25;;
9248;SDS011;4660;41.768;26.198;2023-04-15T20:20:27;17.60;;;6.87;;
9248;SDS011;4660;41.768;26.198;2023-04-15T20:23:15;19.47;;;7.70;;
9248;SDS011;4660;41.768;26.198;2023-04-15T20:26:19;15.63;;;6.15;;
9248;SDS011;4660;41.768;26.198;2023-04-15T20:28:46;17.40;;;6.20;;
9248;SDS011;4660;41.768;26.198;2023-04-15T20:31:12;12.30;;;5.53;;